createdAt,value
2017-06-20T00:01:23.338Z,8.13
2017-06-20T00:03:51.185Z,9.20
2017-06-20T00:06:19.395Z,8.30
2017-06-20T00:08:47.741Z,8.80
2017-06-20T00:11:15.398Z,9.33
2017-06-20T00:13:43.468Z,10.23
2017-06-20T00:16:11.342Z,8.33
2017-06-20T00:18:39.919Z,9.70
2017-06-20T00:21:07.785Z,9.90
2017-06-20T00:23:35.650Z,9.43
2017-06-20T00:26:03.720Z,8.77
2017-06-20T00:28:33.124Z,8.37
2017-06-20T00:31:01.761Z,9.33
2017-06-20T00:33:29.572Z,9.07
2017-06-20T00:35:57.439Z,9.57
2017-06-20T00:38:26.031Z,10.03
2017-06-20T00:40:53.814Z,7.47
2017-06-20T00:43:21.549Z,8.00
2017-06-20T00:45:50.652Z,9.00
2017-06-20T00:48:18.510Z,9.27
2017-06-20T00:50:46.274Z,9.87
2017-06-20T00:53:14.652Z,10.97
2017-06-20T00:55:42.518Z,9.80
2017-06-20T00:58:10.384Z,10.00
2017-06-20T01:00:38.147Z,13.97
2017-06-20T01:03:06.017Z,9.40
2017-06-20T01:05:34.422Z,10.67
2017-06-20T01:08:02.429Z,11.07
2017-06-20T01:10:30.456Z,9.70
2017-06-20T01:12:58.400Z,13.07
2017-06-20T01:15:26.223Z,11.33
2017-06-20T01:17:53.920Z,9.23
2017-06-20T01:20:21.992Z,16.33
2017-06-20T01:22:50.197Z,15.80
2017-06-20T01:25:19.369Z,13.40
2017-06-20T01:27:47.236Z,9.77
2017-06-20T01:30:16.570Z,10.30
2017-06-20T01:32:44.101Z,10.13
2017-06-20T01:35:12.062Z,10.73
2017-06-20T01:37:40.339Z,10.00
2017-06-20T01:40:08.204Z,11.00
2017-06-20T01:42:35.967Z,10.40
2017-06-20T01:45:03.964Z,10.57
2017-06-20T01:47:32.212Z,8.87
2017-06-20T01:50:00.629Z,9.27
2017-06-20T01:52:28.665Z,9.87
2017-06-20T01:54:56.857Z,9.67
2017-06-20T01:57:25.316Z,10.90
2017-06-20T01:59:53.855Z,11.53
2017-06-20T02:02:22.438Z,12.13
2017-06-20T02:04:51.371Z,9.37
2017-06-20T02:07:19.370Z,9.93
2017-06-20T02:09:47.309Z,10.30
2017-06-20T02:12:15.569Z,9.23
2017-06-20T02:14:44.167Z,9.60
2017-06-20T02:17:12.265Z,14.00
2017-06-20T02:19:40.514Z,10.23
2017-06-20T02:22:09.404Z,8.90
2017-06-20T02:24:37.372Z,9.43
2017-06-20T02:27:05.341Z,12.20
2017-06-20T02:29:34.008Z,19.43
2017-06-20T02:32:01.999Z,8.80
2017-06-20T02:34:29.553Z,10.10
2017-06-20T02:36:58.107Z,10.33
2017-06-20T02:39:26.426Z,10.03
2017-06-20T02:41:54.241Z,10.80
2017-06-20T02:44:22.246Z,9.93
2017-06-20T02:46:50.098Z,14.37
2017-06-20T02:49:17.978Z,8.83
2017-06-20T02:51:46.603Z,9.80
2017-06-20T02:54:14.633Z,20.10
2017-06-20T02:56:42.547Z,11.60
2017-06-20T02:59:10.384Z,10.43
2017-06-20T03:01:38.665Z,10.23
2017-06-20T03:04:06.813Z,15.73
2017-06-20T03:06:34.759Z,12.73
2017-06-20T03:09:03.063Z,11.37
2017-06-20T03:11:31.085Z,11.97
2017-06-20T03:14:00.082Z,11.73
2017-06-20T03:16:28.301Z,12.10
2017-06-20T03:18:56.170Z,12.77
2017-06-20T03:21:25.243Z,16.20
2017-06-20T03:23:53.019Z,8.17
2017-06-20T03:26:21.519Z,11.07
2017-06-20T03:28:49.694Z,11.73
2017-06-20T03:31:17.723Z,11.00
2017-06-20T03:33:46.337Z,10.97
2017-06-20T03:36:14.471Z,11.73
2017-06-20T03:38:42.368Z,11.13
2017-06-20T03:41:10.336Z,11.77
2017-06-20T03:43:38.304Z,9.73
2017-06-20T03:46:06.171Z,10.53
2017-06-20T03:48:33.934Z,14.97
2017-06-20T03:51:01.904Z,12.00
2017-06-20T03:53:29.672Z,12.27
2017-06-20T03:55:57.385Z,14.17
2017-06-20T03:58:25.495Z,12.40
2017-06-20T04:00:53.236Z,11.67
2017-06-20T04:03:22.259Z,11.77
2017-06-20T04:05:51.380Z,10.33
2017-06-20T04:08:19.218Z,12.53
2017-06-20T04:10:47.515Z,14.10
2017-06-20T04:13:15.359Z,20.73
2017-06-20T04:15:44.153Z,16.30
2017-06-20T04:18:12.025Z,10.50
2017-06-20T04:20:40.363Z,11.33
2017-06-20T04:23:08.174Z,11.17
2017-06-20T04:25:35.987Z,11.00
2017-06-20T04:28:04.265Z,11.70
2017-06-20T04:30:32.509Z,11.50
2017-06-20T04:32:59.993Z,12.37
2017-06-20T04:35:28.889Z,13.37
2017-06-20T04:37:57.134Z,13.53
2017-06-20T04:40:24.617Z,12.60
2017-06-20T04:42:52.881Z,11.43
2017-06-20T04:45:20.361Z,11.40
2017-06-20T04:47:47.841Z,13.43
2017-06-20T04:50:15.341Z,12.30
2017-06-20T04:52:42.817Z,12.33
2017-06-20T04:55:11.061Z,13.77
2017-06-20T04:57:38.573Z,12.93
2017-06-20T05:00:06.654Z,12.40
2017-06-20T05:02:34.545Z,11.40
2017-06-20T05:05:02.186Z,12.30
2017-06-20T05:07:29.678Z,19.43
2017-06-20T05:09:57.158Z,11.43
2017-06-20T05:12:25.421Z,10.73
2017-06-20T05:14:52.894Z,9.23
2017-06-20T05:17:21.138Z,9.77
2017-06-20T05:19:48.655Z,9.20
2017-06-20T05:22:16.153Z,10.10
2017-06-20T05:24:43.709Z,8.07
2017-06-20T05:27:11.213Z,9.43
2017-06-20T05:29:39.449Z,8.93
2017-06-20T05:32:06.918Z,8.60
2017-06-20T05:34:34.409Z,9.03
2017-06-20T05:37:01.882Z,9.53
2017-06-20T05:39:29.413Z,11.93
2017-06-20T05:41:57.673Z,7.80
2017-06-20T05:44:25.151Z,8.43
2017-06-20T05:46:53.389Z,12.60
2017-06-20T05:49:20.974Z,9.27
2017-06-20T05:51:49.217Z,7.17
2017-06-20T05:54:16.685Z,7.80
2017-06-20T05:56:44.177Z,8.63
2017-06-20T05:59:11.649Z,7.00
2017-06-20T06:01:39.120Z,7.40
2017-06-20T06:04:06.610Z,6.13
2017-06-20T06:06:34.077Z,6.80
2017-06-20T06:09:01.549Z,7.53
2017-06-20T06:11:29.809Z,7.37
2017-06-20T06:13:58.070Z,7.93
2017-06-20T06:16:25.547Z,8.37
2017-06-20T06:18:53.047Z,10.10
2017-06-20T06:21:20.569Z,7.60
2017-06-20T06:23:48.821Z,14.80
2017-06-20T06:26:16.554Z,6.93
2017-06-20T06:28:44.024Z,5.73
2017-06-20T06:31:11.497Z,6.60
2017-06-20T06:33:38.990Z,6.93
2017-06-20T06:36:07.237Z,5.90
2017-06-20T06:38:34.709Z,6.60
2017-06-20T06:41:02.974Z,9.97
2017-06-20T06:43:30.482Z,5.77
2017-06-20T06:45:57.953Z,6.13
2017-06-20T06:48:25.450Z,6.40
2017-06-20T06:50:52.935Z,6.10
2017-06-20T06:53:20.431Z,5.07
2017-06-20T06:55:47.935Z,4.87
2017-06-20T06:58:16.170Z,4.20
2017-06-20T07:00:43.641Z,5.97
2017-06-20T07:03:11.133Z,4.97
2017-06-20T07:05:38.606Z,4.63
2017-06-20T07:08:06.079Z,4.87
2017-06-20T07:10:33.582Z,4.87
2017-06-20T07:13:01.053Z,4.50
2017-06-20T07:15:29.305Z,5.27
2017-06-20T07:17:56.806Z,5.17
2017-06-20T07:20:24.277Z,5.83
2017-06-20T07:22:51.746Z,4.70
2017-06-20T07:25:19.246Z,6.73
2017-06-20T07:27:47.490Z,3.43
2017-06-20T07:30:14.966Z,6.97
2017-06-20T07:32:42.794Z,5.10
2017-06-20T07:35:10.266Z,9.13
2017-06-20T07:37:37.741Z,4.03
2017-06-20T07:40:05.237Z,4.40
2017-06-20T07:42:32.715Z,4.00
2017-06-20T07:45:00.193Z,3.73
2017-06-20T07:47:27.694Z,6.73
2017-06-20T07:49:55.169Z,4.73
2017-06-20T07:52:22.648Z,4.07
2017-06-20T07:54:50.141Z,4.53
2017-06-20T07:57:17.617Z,4.27
2017-06-20T07:59:46.249Z,3.90
2017-06-20T08:02:13.737Z,4.17
2017-06-20T08:04:41.212Z,4.20
2017-06-20T08:07:08.681Z,3.53
2017-06-20T08:09:36.177Z,4.30
2017-06-20T08:12:03.651Z,6.13
2017-06-20T08:14:31.151Z,4.40
2017-06-20T08:16:58.659Z,3.50
2017-06-20T08:19:26.133Z,4.80
2017-06-20T08:22:09.313Z,5.63
2017-06-20T08:24:36.797Z,3.70
2017-06-20T08:27:04.273Z,3.63
2017-06-20T08:29:31.775Z,19.00
2017-06-20T08:31:59.254Z,3.50
2017-06-20T08:34:26.726Z,5.20
2017-06-20T08:36:54.218Z,3.27
2017-06-20T08:39:21.691Z,4.57
2017-06-20T08:41:49.936Z,3.23
2017-06-20T08:44:17.450Z,4.33
2017-06-20T08:46:44.929Z,4.23
2017-06-20T08:49:12.433Z,4.20
2017-06-20T08:51:40.964Z,3.93
2017-06-20T08:54:08.445Z,10.03
2017-06-20T08:56:35.922Z,5.00
2017-06-20T08:59:03.413Z,3.10
2017-06-20T09:01:30.890Z,3.30
2017-06-20T09:03:58.365Z,4.10
2017-06-20T09:06:25.858Z,4.20
2017-06-20T09:08:54.104Z,3.33
2017-06-20T09:11:21.573Z,3.13
2017-06-20T09:13:49.069Z,3.40
2017-06-20T09:16:16.565Z,16.93
2017-06-20T09:18:44.038Z,4.10
2017-06-20T09:21:11.533Z,4.43
2017-06-20T09:23:39.006Z,4.03
2017-06-20T09:26:06.545Z,4.00
2017-06-20T09:28:34.343Z,4.93
2017-06-20T09:31:01.837Z,3.53
2017-06-20T09:33:29.313Z,6.50
2017-06-20T09:35:57.631Z,3.50
2017-06-20T09:38:25.107Z,4.30
2017-06-20T09:40:52.582Z,3.50
2017-06-20T09:43:25.554Z,6.60
2017-06-20T09:45:53.025Z,3.87
2017-06-20T09:48:20.497Z,3.17
2017-06-20T09:50:47.991Z,3.83
2017-06-20T09:53:15.470Z,3.00
2017-06-20T09:55:42.945Z,2.70
2017-06-20T09:58:10.453Z,3.37
2017-06-20T10:00:37.949Z,4.07
2017-06-20T10:03:05.425Z,4.20
2017-06-20T10:05:32.918Z,3.50
2017-06-20T10:08:00.409Z,3.53
2017-06-20T10:10:27.888Z,5.33
2017-06-20T10:12:55.381Z,3.33
2017-06-20T10:15:23.624Z,4.33
2017-06-20T10:17:51.146Z,3.03
2017-06-20T10:20:18.649Z,7.97
2017-06-20T10:22:46.123Z,22.27
2017-06-20T10:25:14.365Z,8.60
2017-06-20T10:27:41.865Z,5.20
2017-06-20T10:30:10.383Z,4.67
2017-06-20T10:32:37.862Z,7.40
2017-06-20T10:35:05.355Z,4.17
2017-06-20T10:37:33.597Z,9.10
2017-06-20T10:40:01.073Z,5.60
2017-06-20T10:42:29.666Z,10.50
2017-06-20T10:44:57.910Z,6.57
2017-06-20T10:47:25.381Z,6.20
2017-06-20T10:49:52.876Z,7.40
2017-06-20T10:52:20.349Z,5.93
2017-06-20T10:54:47.821Z,7.40
2017-06-20T10:57:15.438Z,7.13
2017-06-20T10:59:43.673Z,5.37
2017-06-20T11:02:11.198Z,4.40
2017-06-20T11:04:38.694Z,5.07
2017-06-20T11:07:06.168Z,4.50
2017-06-20T11:09:34.406Z,4.13
2017-06-20T11:12:01.898Z,3.93
2017-06-20T11:14:29.368Z,4.17
2017-06-20T11:16:57.609Z,4.87
2017-06-20T11:19:25.121Z,4.30
2017-06-20T11:21:52.601Z,4.90
2017-06-20T11:24:20.077Z,7.20
2017-06-20T11:26:47.820Z,4.37
2017-06-20T11:29:15.297Z,5.13
2017-06-20T11:31:42.777Z,6.50
2017-06-20T11:34:11.053Z,5.10
2017-06-20T11:36:39.297Z,4.97
2017-06-20T11:39:06.774Z,13.10
2017-06-20T11:41:34.266Z,5.23
2017-06-20T11:44:01.739Z,5.07
2017-06-20T11:46:29.213Z,4.57
2017-06-20T11:48:56.709Z,4.50
2017-06-20T11:51:24.181Z,6.03
2017-06-20T11:53:52.429Z,4.57
2017-06-20T11:56:20.070Z,4.90
2017-06-20T11:58:47.546Z,4.13
2017-06-20T12:01:15.025Z,4.87
2017-06-20T12:03:43.286Z,4.80
2017-06-20T12:06:10.758Z,5.50
2017-06-20T12:08:38.997Z,7.53
2017-06-20T12:11:06.490Z,4.70
2017-06-20T12:13:34.738Z,4.30
2017-06-20T12:16:02.214Z,4.70
2017-06-20T12:18:29.709Z,9.00
2017-06-20T12:20:57.186Z,5.47
2017-06-20T12:23:24.658Z,4.90
2017-06-20T12:25:52.157Z,4.70
2017-06-20T12:28:20.398Z,4.20
2017-06-20T12:30:47.871Z,6.07
2017-06-20T12:33:15.365Z,7.60
2017-06-20T12:35:42.846Z,4.90
2017-06-20T12:38:10.322Z,5.67
2017-06-20T12:40:37.821Z,6.40
2017-06-20T12:43:06.068Z,9.33
2017-06-20T12:45:33.537Z,5.50
2017-06-20T12:48:01.038Z,5.20
2017-06-20T12:50:28.514Z,5.53
2017-06-20T12:52:55.993Z,5.10
2017-06-20T12:55:23.497Z,5.47
2017-06-20T12:57:50.971Z,6.50
2017-06-20T13:00:18.450Z,7.03
2017-06-20T13:02:45.950Z,8.90
2017-06-20T13:05:14.193Z,5.77
2017-06-20T13:07:41.670Z,8.07
2017-06-20T13:10:09.273Z,6.20
2017-06-20T13:12:36.752Z,6.47
2017-06-20T13:15:04.230Z,8.03
2017-06-20T13:17:31.729Z,7.53
2017-06-20T13:19:59.203Z,7.70
2017-06-20T13:22:26.675Z,7.33
2017-06-20T13:24:54.169Z,7.40
2017-06-20T13:27:21.658Z,7.37
2017-06-20T13:29:49.130Z,7.10
2017-06-20T13:32:16.738Z,7.27
2017-06-20T13:34:44.278Z,7.10
2017-06-20T13:37:11.801Z,7.27
2017-06-20T13:39:39.578Z,6.73
2017-06-20T13:42:07.078Z,7.90
2017-06-20T13:44:34.666Z,7.70
2017-06-20T13:47:02.246Z,7.20
2017-06-20T13:49:29.751Z,7.20
2017-06-20T13:51:57.226Z,7.63
2017-06-20T13:54:25.489Z,8.00
2017-06-20T13:56:53.052Z,8.13
2017-06-20T13:59:21.305Z,7.53
2017-06-20T14:01:48.881Z,8.10
2017-06-20T14:04:16.358Z,7.23
2017-06-20T14:06:43.833Z,7.80
2017-06-20T14:09:11.439Z,10.40
2017-06-20T14:11:38.930Z,9.53
2017-06-20T14:14:06.729Z,7.77
2017-06-20T14:16:34.227Z,8.03
2017-06-20T14:19:01.774Z,7.83
2017-06-20T14:21:29.257Z,7.60
2017-06-20T14:23:57.518Z,8.40
2017-06-20T14:26:25.097Z,7.53
2017-06-20T14:28:53.484Z,7.97
2017-06-20T14:31:21.122Z,8.23
2017-06-20T14:33:48.837Z,7.90
2017-06-20T14:36:16.500Z,7.60
2017-06-20T14:38:44.029Z,7.67
2017-06-20T14:41:11.509Z,7.93
2017-06-20T14:43:38.985Z,7.73
2017-06-20T14:46:06.485Z,8.93
2017-06-20T14:48:34.725Z,8.43
2017-06-20T14:51:02.197Z,9.07
2017-06-20T14:53:29.693Z,7.87
2017-06-20T14:55:57.177Z,7.83
2017-06-20T14:58:24.657Z,8.47
2017-06-20T15:00:52.157Z,9.73
2017-06-20T15:03:19.633Z,8.70
2017-06-20T15:05:47.125Z,8.90
2017-06-20T15:08:14.666Z,9.20
2017-06-20T15:10:42.149Z,11.57
2017-06-20T15:13:09.625Z,8.40
2017-06-20T15:15:37.889Z,8.57
2017-06-20T15:18:05.361Z,9.53
2017-06-20T15:20:33.598Z,8.33
2017-06-20T15:23:01.344Z,7.70
2017-06-20T15:25:28.822Z,8.73
2017-06-20T15:27:56.304Z,8.67
2017-06-20T15:30:23.803Z,9.17
2017-06-20T15:32:51.281Z,8.43
2017-06-20T15:35:19.037Z,8.83
2017-06-20T15:37:46.537Z,8.53
2017-06-20T15:40:14.117Z,10.00
2017-06-20T15:42:42.357Z,8.80
2017-06-20T15:45:09.849Z,8.50
2017-06-20T15:47:38.090Z,8.30
2017-06-20T15:50:05.566Z,8.83
2017-06-20T15:52:33.833Z,8.23
2017-06-20T15:55:02.090Z,8.30
2017-06-20T15:57:29.564Z,9.53
2017-06-20T15:59:57.065Z,8.27
2017-06-20T16:02:24.540Z,8.03
2017-06-20T16:04:52.076Z,9.30
2017-06-20T16:07:19.813Z,9.03
2017-06-20T16:09:48.059Z,8.93
2017-06-20T16:12:15.537Z,8.83
2017-06-20T16:14:43.357Z,8.60
2017-06-20T16:17:10.874Z,8.73
2017-06-20T16:19:39.114Z,9.63
2017-06-20T16:22:06.632Z,8.40
2017-06-20T16:24:34.098Z,8.60
2017-06-20T16:27:01.573Z,9.80
2017-06-20T16:29:29.061Z,8.60
2017-06-20T16:31:56.533Z,8.60
2017-06-20T16:34:24.773Z,8.60
2017-06-20T16:36:52.514Z,7.60
2017-06-20T16:39:19.989Z,8.23
2017-06-20T16:41:47.461Z,8.53
2017-06-20T16:44:14.957Z,9.27
2017-06-20T16:46:42.435Z,8.60
2017-06-20T16:49:10.206Z,9.40
2017-06-20T16:51:37.705Z,7.90
2017-06-20T16:54:05.186Z,14.30
2017-06-20T16:56:33.430Z,8.40
2017-06-20T16:59:00.925Z,8.93
2017-06-20T17:01:28.398Z,9.40
2017-06-20T17:03:55.873Z,8.90
2017-06-20T17:06:23.369Z,8.33
2017-06-20T17:08:50.841Z,9.30
2017-06-20T17:11:19.086Z,9.53
2017-06-20T17:13:46.581Z,9.40
2017-06-20T17:16:14.058Z,9.37
2017-06-20T17:18:41.534Z,8.83
2017-06-20T17:21:09.033Z,10.43
2017-06-20T17:23:37.281Z,9.23
2017-06-20T17:26:04.758Z,10.40
2017-06-20T17:28:32.262Z,10.73
2017-06-20T17:30:59.745Z,13.27
2017-06-20T17:33:27.223Z,13.83
2017-06-20T17:35:54.949Z,9.47
2017-06-20T17:38:22.430Z,9.50
2017-06-20T17:40:49.906Z,10.23
2017-06-20T17:43:17.626Z,10.20
2017-06-20T17:45:45.117Z,10.87
2017-06-20T17:48:12.596Z,10.27
2017-06-20T17:50:40.871Z,10.40
2017-06-20T17:53:09.113Z,8.83
2017-06-20T17:55:36.854Z,9.83
2017-06-20T17:58:04.353Z,10.60
2017-06-20T18:00:31.825Z,9.07
2017-06-20T18:02:59.336Z,13.33
2017-06-20T18:05:26.835Z,12.43
2017-06-20T18:07:55.095Z,10.43
2017-06-20T18:10:22.725Z,11.30
2017-06-20T18:12:50.217Z,9.73
2017-06-20T18:15:17.693Z,9.80
2017-06-20T18:17:45.937Z,10.07
2017-06-20T18:20:13.437Z,10.90
2017-06-20T18:22:40.917Z,10.07
2017-06-20T18:25:08.393Z,10.47
2017-06-20T18:27:35.886Z,9.90
2017-06-20T18:30:04.131Z,9.40
2017-06-20T18:32:31.601Z,9.80
2017-06-20T18:34:59.103Z,10.67
2017-06-20T18:37:26.582Z,10.30
2017-06-20T18:39:54.067Z,10.33
2017-06-20T18:42:21.568Z,10.40
2017-06-20T18:44:49.046Z,13.20
2017-06-20T18:47:16.526Z,11.37
2017-06-20T18:49:44.024Z,11.23
2017-06-20T18:52:12.273Z,12.10
2017-06-20T18:54:39.750Z,9.93
2017-06-20T18:57:08.033Z,10.40
2017-06-20T18:59:36.281Z,10.20
2017-06-20T19:02:04.017Z,10.57
2017-06-20T19:04:31.520Z,10.47
2017-06-20T19:07:00.054Z,11.13
2017-06-20T19:09:27.545Z,10.63
2017-06-20T19:11:55.048Z,11.40
2017-06-20T19:14:22.530Z,10.67
2017-06-20T19:16:50.006Z,9.70
2017-06-20T19:19:17.505Z,11.80
2017-06-20T19:21:45.749Z,11.47
2017-06-20T19:24:13.232Z,12.57
2017-06-20T19:26:41.497Z,11.77
2017-06-20T19:29:09.780Z,12.23
2017-06-20T19:31:38.029Z,11.20
2017-06-20T19:34:05.529Z,11.80
2017-06-20T19:36:33.358Z,11.30
2017-06-20T19:39:00.837Z,10.20
2017-06-20T19:41:29.534Z,11.67
2017-06-20T19:43:57.034Z,17.13
2017-06-20T19:46:25.803Z,11.60
2017-06-20T19:48:53.365Z,12.10
2017-06-20T19:51:20.916Z,22.00
2017-06-20T19:53:48.397Z,12.90
2017-06-20T19:56:15.897Z,11.10
2017-06-20T19:58:44.146Z,12.03
2017-06-20T20:01:11.626Z,11.20
2017-06-20T20:03:39.894Z,12.53
2017-06-20T20:06:08.149Z,19.37
2017-06-20T20:08:35.882Z,12.47
2017-06-20T20:11:03.385Z,12.23
2017-06-20T20:13:30.866Z,13.20
2017-06-20T20:15:58.421Z,15.77
2017-06-20T20:18:26.698Z,13.50
2017-06-20T20:20:54.942Z,13.30
2017-06-20T20:23:22.421Z,13.83
2017-06-20T20:25:50.691Z,14.90
2017-06-20T20:28:18.932Z,13.47
2017-06-20T20:30:46.657Z,16.27
2017-06-20T20:33:15.006Z,13.67
2017-06-20T20:35:43.257Z,13.90
2017-06-20T20:38:10.738Z,13.57
2017-06-20T20:40:39.026Z,13.50
2017-06-20T20:43:07.273Z,19.13
2017-06-20T20:45:34.761Z,12.97
2017-06-20T20:48:02.265Z,17.40
2017-06-20T20:50:29.745Z,14.17
2017-06-20T20:52:57.293Z,16.33
2017-06-20T20:55:24.799Z,13.90
2017-06-20T20:57:52.281Z,25.23
2017-06-20T21:00:19.765Z,15.50
2017-06-20T21:02:47.277Z,14.77
2017-06-20T21:05:14.757Z,13.97
2017-06-20T21:07:42.241Z,13.07
2017-06-20T21:10:09.741Z,14.77
2017-06-20T21:12:37.218Z,13.60
2017-06-20T21:15:04.698Z,14.77
2017-06-20T21:17:32.201Z,13.43
2017-06-20T21:20:00.445Z,13.23
2017-06-20T21:22:27.929Z,14.53
2017-06-20T21:24:56.193Z,15.33
2017-06-20T21:27:24.441Z,14.97
2017-06-20T21:29:51.921Z,17.87
2017-06-20T21:32:19.428Z,16.43
2017-06-20T21:34:46.913Z,16.17
2017-06-20T21:37:14.393Z,18.97
2017-06-20T21:39:41.895Z,23.83
2017-06-20T21:42:09.377Z,15.73
2017-06-20T21:44:36.858Z,14.70
2017-06-20T21:47:04.394Z,15.50
2017-06-20T21:49:31.873Z,16.07
2017-06-20T21:51:59.358Z,15.40
2017-06-20T21:54:27.624Z,14.60
2017-06-20T21:56:55.869Z,16.23
2017-06-20T21:59:23.350Z,13.83
2017-06-20T22:01:51.617Z,14.60
2017-06-20T22:04:19.097Z,15.20
2017-06-20T22:06:47.345Z,14.67
2017-06-20T22:09:14.845Z,15.23
2017-06-20T22:11:42.325Z,16.00
2017-06-20T22:14:09.801Z,16.77
2017-06-20T22:16:37.310Z,17.13
2017-06-20T22:19:04.790Z,17.13
2017-06-20T22:21:32.273Z,17.30
2017-06-20T22:23:59.778Z,18.40
2017-06-20T22:26:27.254Z,16.50
2017-06-20T22:28:54.738Z,17.10
2017-06-20T22:31:22.237Z,18.80
2017-06-20T22:33:50.512Z,15.47
2017-06-20T22:36:18.758Z,16.20
2017-06-20T22:38:46.258Z,17.80
2017-06-20T22:41:13.757Z,17.03
2017-06-20T22:43:41.237Z,20.87
2017-06-20T22:46:08.737Z,16.43
2017-06-20T22:48:36.216Z,15.60
2017-06-20T22:51:03.693Z,18.07
2017-06-20T22:53:31.193Z,18.60
2017-06-20T22:55:59.457Z,14.67
2017-06-20T22:58:27.700Z,18.13
2017-06-20T23:00:55.202Z,17.00
2017-06-20T23:03:23.446Z,15.70
2017-06-20T23:05:50.929Z,17.00
2017-06-20T23:08:19.449Z,16.53
2017-06-20T23:10:46.932Z,19.67
2017-06-20T23:13:14.634Z,18.90
2017-06-20T23:15:42.905Z,19.77
2017-06-20T23:18:11.149Z,17.97
2017-06-20T23:20:38.629Z,17.97
2017-06-20T23:23:06.897Z,20.03
2017-06-20T23:25:34.377Z,19.10
2017-06-20T23:28:02.174Z,22.13
2017-06-20T23:30:30.048Z,17.83
2017-06-20T23:32:57.562Z,17.30
2017-06-20T23:35:25.809Z,17.00
2017-06-20T23:37:53.309Z,20.63
2017-06-20T23:40:20.790Z,16.03
2017-06-20T23:42:48.273Z,20.17
2017-06-20T23:45:15.881Z,21.83
2017-06-20T23:47:43.365Z,18.20
2017-06-20T23:50:10.846Z,16.40
2017-06-20T23:52:38.345Z,16.63
2017-06-20T23:55:05.822Z,16.37
2017-06-20T23:57:33.345Z,18.03
